createdAt,value
2018-06-15T00:00:21.760Z,18.58
2018-06-15T00:02:56.128Z,18.39
2018-06-15T00:05:24.855Z,18.55
2018-06-15T00:07:53.587Z,18.21
2018-06-15T00:10:22.346Z,18.04
2018-06-15T00:12:51.022Z,18.33
2018-06-15T00:15:19.608Z,18.38
2018-06-15T00:17:48.288Z,18.37
2018-06-15T00:20:16.898Z,18.30
2018-06-15T00:22:45.607Z,18.16
2018-06-15T00:25:14.204Z,17.95
2018-06-15T00:27:42.830Z,17.84
2018-06-15T00:30:11.423Z,18.06
2018-06-15T00:32:40.075Z,17.98
2018-06-15T00:35:08.756Z,17.77
2018-06-15T00:37:37.448Z,17.58
2018-06-15T00:40:06.142Z,17.45
2018-06-15T00:42:34.736Z,17.36
2018-06-15T00:45:03.428Z,17.28
2018-06-15T00:47:32.035Z,17.16
2018-06-15T00:50:00.628Z,17.02
2018-06-15T00:52:29.367Z,17.28
2018-06-15T00:54:58.115Z,17.05
2018-06-15T00:57:43.860Z,16.89
2018-06-15T01:00:12.617Z,16.84
2018-06-15T01:02:41.450Z,16.69
2018-06-15T01:05:10.188Z,16.62
2018-06-15T01:07:38.965Z,16.66
2018-06-15T01:10:07.783Z,16.77
2018-06-15T01:12:36.599Z,16.78
2018-06-15T01:15:06.282Z,16.79
2018-06-15T01:17:35.268Z,16.81
2018-06-15T01:20:04.155Z,16.77
2018-06-15T01:22:32.785Z,16.84
2018-06-15T01:25:01.449Z,16.79
2018-06-15T01:27:30.033Z,16.61
2018-06-15T01:29:58.655Z,16.51
2018-06-15T01:32:27.237Z,16.55
2018-06-15T01:34:55.998Z,16.56
2018-06-15T01:37:24.751Z,16.89
2018-06-15T01:39:53.446Z,16.76
2018-06-15T01:42:22.117Z,16.60
2018-06-15T01:44:50.785Z,16.46
2018-06-15T01:47:19.491Z,16.52
2018-06-15T01:49:48.066Z,16.63
2018-06-15T01:52:16.643Z,16.48
2018-06-15T01:54:45.241Z,16.50
2018-06-15T01:57:13.946Z,16.41
2018-06-15T01:59:42.548Z,16.62
2018-06-15T02:02:11.112Z,16.46
2018-06-15T02:04:39.736Z,16.42
2018-06-15T02:07:08.327Z,16.36
2018-06-15T02:09:36.883Z,16.31
2018-06-15T02:12:05.493Z,16.22
2018-06-15T02:14:34.506Z,16.39
2018-06-15T02:17:03.367Z,16.62
2018-06-15T02:19:32.206Z,16.73
2018-06-15T02:22:01.125Z,16.90
2018-06-15T02:24:29.940Z,16.98
2018-06-15T02:26:58.619Z,17.08
2018-06-15T02:29:27.300Z,17.14
2018-06-15T02:31:56.054Z,17.19
2018-06-15T02:34:24.757Z,17.41
2018-06-15T02:36:53.466Z,17.48
2018-06-15T02:39:22.141Z,17.69
2018-06-15T02:41:50.786Z,17.65
2018-06-15T02:44:19.416Z,17.66
2018-06-15T02:46:48.121Z,17.59
2018-06-15T02:49:16.793Z,17.61
2018-06-15T02:51:45.578Z,17.55
2018-06-15T02:54:14.256Z,17.47
2018-06-15T02:56:43.003Z,17.58
2018-06-15T02:59:11.661Z,17.55
2018-06-15T03:01:40.378Z,17.62
2018-06-15T03:04:09.029Z,17.87
2018-06-15T03:06:37.716Z,17.93
2018-06-15T03:09:07.341Z,17.98
2018-06-15T03:11:36.066Z,17.91
2018-06-15T03:14:04.838Z,18.05
2018-06-15T03:16:33.716Z,17.97
2018-06-15T03:19:02.683Z,17.86
2018-06-15T03:21:31.633Z,17.87
2018-06-15T03:24:00.749Z,18.03
2018-06-15T03:26:29.709Z,17.83
2018-06-15T03:28:58.390Z,17.97
2018-06-15T03:31:26.995Z,17.87
2018-06-15T03:33:56.081Z,17.74
2018-06-15T03:36:25.068Z,18.04
2018-06-15T03:38:54.030Z,17.93
2018-06-15T03:41:23.015Z,18.04
2018-06-15T03:43:52.031Z,17.93
2018-06-15T03:46:20.643Z,17.94
2018-06-15T03:48:49.545Z,18.06
2018-06-15T03:51:18.439Z,18.31
2018-06-15T03:53:47.435Z,18.46
2018-06-15T03:56:16.347Z,18.41
2018-06-15T03:58:45.002Z,18.58
2018-06-15T04:01:13.574Z,18.53
2018-06-15T04:03:42.263Z,18.72
2018-06-15T04:06:10.836Z,17.58
2018-06-15T04:08:39.567Z,18.80
2018-06-15T04:11:08.513Z,19.15
2018-06-15T04:13:37.443Z,19.22
2018-06-15T04:16:06.534Z,19.42
2018-06-15T04:18:35.420Z,19.59
2018-06-15T04:21:04.403Z,19.65
2018-06-15T04:23:33.231Z,20.21
2018-06-15T04:26:02.116Z,19.91
2018-06-15T04:28:30.861Z,19.82
2018-06-15T04:30:59.463Z,20.29
2018-06-15T04:33:28.059Z,20.65
2018-06-15T04:35:56.656Z,20.85
2018-06-15T04:38:25.281Z,20.90
2018-06-15T04:40:53.698Z,20.93
2018-06-15T04:43:22.274Z,20.80
2018-06-15T04:45:50.896Z,21.20
2018-06-15T04:48:19.496Z,21.34
2018-06-15T04:50:48.311Z,21.55
2018-06-15T04:53:17.210Z,21.61
2018-06-15T04:55:46.101Z,21.56
2018-06-15T04:58:15.004Z,21.53
2018-06-15T05:00:43.705Z,22.05
2018-06-15T05:03:13.962Z,22.16
2018-06-15T05:05:44.076Z,22.25
2018-06-15T05:08:12.788Z,22.59
2018-06-15T05:10:41.616Z,22.84
2018-06-15T05:13:10.511Z,23.03
2018-06-15T05:15:39.496Z,22.67
2018-06-15T05:18:08.084Z,22.84
2018-06-15T05:20:36.866Z,22.83
2018-06-15T05:23:05.784Z,23.17
2018-06-15T05:25:34.724Z,23.12
2018-06-15T05:28:03.646Z,23.43
2018-06-15T05:30:32.603Z,23.49
2018-06-15T05:33:01.469Z,23.13
2018-06-15T05:35:30.381Z,23.15
2018-06-15T05:37:59.370Z,23.46
2018-06-15T05:40:28.256Z,23.65
2018-06-15T05:42:57.161Z,24.00
2018-06-15T05:45:26.123Z,23.86
2018-06-15T05:47:54.923Z,23.89
2018-06-15T05:50:23.810Z,23.68
2018-06-15T05:52:52.878Z,23.85
2018-06-15T05:55:21.915Z,23.90
2018-06-15T05:57:50.762Z,23.87
2018-06-15T06:00:19.805Z,23.95
2018-06-15T06:02:48.585Z,23.26
2018-06-15T06:05:17.271Z,23.76
2018-06-15T06:07:45.958Z,23.85
2018-06-15T06:10:14.641Z,24.00
2018-06-15T06:12:43.348Z,24.00
2018-06-15T06:15:11.976Z,23.81
2018-06-15T06:17:40.431Z,23.86
2018-06-15T06:20:10.717Z,23.90
2018-06-15T06:22:39.451Z,23.91
2018-06-15T06:25:08.055Z,23.98
2018-06-15T06:27:36.846Z,23.94
2018-06-15T06:30:05.604Z,24.14
2018-06-15T06:32:34.560Z,23.96
2018-06-15T06:35:03.581Z,24.27
2018-06-15T06:37:33.046Z,24.57
2018-06-15T06:40:02.084Z,24.52
2018-06-15T06:42:32.033Z,24.59
2018-06-15T06:45:01.211Z,24.68
2018-06-15T06:47:30.162Z,25.27
2018-06-15T06:49:59.219Z,25.31
2018-06-15T06:52:28.211Z,25.30
2018-06-15T06:54:57.124Z,24.96
2018-06-15T06:57:26.019Z,24.97
2018-06-15T06:59:55.017Z,24.95
2018-06-15T07:02:23.864Z,24.27
2018-06-15T07:04:52.493Z,24.18
2018-06-15T07:07:21.132Z,23.86
2018-06-15T07:09:49.794Z,23.46
2018-06-15T07:12:18.401Z,23.52
2018-06-15T07:14:51.297Z,23.42
2018-06-15T07:17:22.564Z,23.74
2018-06-15T07:19:51.361Z,24.49
2018-06-15T07:22:20.193Z,24.84
2018-06-15T07:24:49.254Z,24.89
2018-06-15T07:27:18.294Z,24.31
2018-06-15T07:29:47.176Z,24.34
2018-06-15T07:32:16.032Z,23.80
2018-06-15T07:34:44.889Z,23.76
2018-06-15T07:37:19.980Z,23.81
2018-06-15T07:39:48.862Z,23.78
2018-06-15T07:42:17.726Z,23.67
2018-06-15T07:44:46.447Z,24.38
2018-06-15T07:47:15.012Z,24.66
2018-06-15T07:49:43.619Z,25.05
2018-06-15T07:52:12.034Z,24.79
2018-06-15T07:54:40.806Z,24.66
2018-06-15T07:57:09.656Z,24.46
2018-06-15T07:59:38.562Z,24.73
2018-06-15T08:02:07.386Z,25.15
2018-06-15T08:04:36.210Z,25.32
2018-06-15T08:07:05.591Z,25.68
2018-06-15T08:09:34.414Z,25.82
2018-06-15T08:12:03.263Z,25.99
2018-06-15T08:14:32.115Z,25.36
2018-06-15T08:17:01.014Z,25.66
2018-06-15T08:19:29.871Z,25.49
2018-06-15T08:21:58.756Z,25.40
2018-06-15T08:24:27.385Z,25.44
2018-06-15T08:26:55.984Z,24.99
2018-06-15T08:29:24.630Z,25.03
2018-06-15T08:31:53.285Z,25.03
2018-06-15T08:34:21.883Z,25.21
2018-06-15T08:36:50.479Z,25.20
2018-06-15T08:39:19.091Z,24.97
2018-06-15T08:41:47.684Z,25.05
2018-06-15T08:44:16.466Z,25.14
2018-06-15T08:46:45.439Z,24.95
2018-06-15T08:49:14.016Z,25.00
2018-06-15T08:51:43.251Z,24.85
2018-06-15T08:54:11.926Z,25.15
2018-06-15T08:56:40.591Z,25.30
2018-06-15T08:59:09.203Z,25.47
2018-06-15T09:01:37.759Z,25.23
2018-06-15T09:04:06.360Z,25.28
2018-06-15T09:06:35.096Z,25.25
2018-06-15T09:09:05.306Z,25.22
2018-06-15T09:11:33.896Z,25.08
2018-06-15T09:14:02.659Z,24.93
2018-06-15T09:16:31.601Z,24.97
2018-06-15T09:19:00.536Z,25.41
2018-06-15T09:21:29.612Z,26.00
2018-06-15T09:23:58.268Z,26.17
2018-06-15T09:26:26.876Z,26.35
2018-06-15T09:28:55.454Z,26.35
2018-06-15T09:31:24.043Z,26.30
2018-06-15T09:33:52.826Z,26.14
2018-06-15T09:36:21.454Z,26.46
2018-06-15T09:38:50.101Z,26.70
2018-06-15T09:41:18.782Z,26.24
2018-06-15T09:43:47.438Z,26.47
2018-06-15T09:46:16.078Z,26.58
2018-06-15T09:48:44.898Z,26.47
2018-06-15T09:51:14.698Z,26.47
2018-06-15T09:53:43.439Z,26.42
2018-06-15T09:56:12.104Z,26.29
2018-06-15T09:58:40.833Z,26.60
2018-06-15T10:01:10.349Z,26.54
2018-06-15T10:03:39.794Z,26.88
2018-06-15T10:06:09.077Z,26.48
2018-06-15T10:08:38.015Z,26.03
2018-06-15T10:11:06.976Z,26.08
2018-06-15T10:13:35.853Z,26.08
2018-06-15T10:16:04.696Z,26.21
2018-06-15T10:18:33.306Z,26.03
2018-06-15T10:21:01.924Z,25.98
2018-06-15T10:23:30.527Z,26.21
2018-06-15T10:25:59.354Z,26.27
2018-06-15T10:28:28.064Z,26.15
2018-06-15T10:30:56.702Z,26.21
2018-06-15T10:33:25.316Z,26.39
2018-06-15T10:35:53.992Z,26.42
2018-06-15T10:38:22.599Z,26.68
2018-06-15T10:40:52.121Z,26.79
2018-06-15T10:43:20.714Z,27.11
2018-06-15T10:45:49.282Z,27.10
2018-06-15T10:48:18.599Z,26.89
2018-06-15T10:50:47.545Z,26.83
2018-06-15T10:53:16.489Z,26.76
2018-06-15T10:55:45.440Z,26.70
2018-06-15T10:58:14.184Z,26.42
2018-06-15T11:00:42.820Z,26.41
2018-06-15T11:03:11.461Z,26.53
2018-06-15T11:05:40.071Z,27.20
2018-06-15T11:08:08.860Z,26.87
2018-06-15T11:10:37.726Z,26.86
2018-06-15T11:13:06.764Z,26.93
2018-06-15T11:15:35.654Z,27.29
2018-06-15T11:18:04.327Z,27.81
2018-06-15T11:20:33.281Z,27.89
2018-06-15T11:23:02.475Z,27.78
2018-06-15T11:25:31.359Z,27.76
2018-06-15T11:28:00.094Z,27.97
2018-06-15T11:30:29.491Z,28.36
2018-06-15T11:32:58.123Z,28.66
2018-06-15T11:35:26.724Z,28.75
2018-06-15T11:37:55.483Z,28.36
2018-06-15T11:40:24.512Z,28.19
2018-06-15T11:42:53.379Z,28.21
2018-06-15T11:45:22.246Z,28.27
2018-06-15T11:47:51.201Z,28.81
2018-06-15T11:50:19.798Z,29.44
2018-06-15T11:52:48.390Z,29.44
2018-06-15T11:55:17.106Z,28.97
2018-06-15T11:57:45.692Z,28.44
2018-06-15T12:00:14.536Z,29.00
2018-06-15T12:02:43.414Z,29.23
2018-06-15T12:05:12.372Z,28.46
2018-06-15T12:07:41.484Z,28.52
2018-06-15T12:10:10.398Z,28.06
2018-06-15T12:12:39.324Z,27.81
2018-06-15T12:15:08.304Z,28.27
2018-06-15T12:17:37.244Z,28.45
2018-06-15T12:20:07.117Z,29.50
2018-06-15T12:22:36.660Z,30.22
2018-06-15T12:25:05.611Z,30.03
2018-06-15T12:27:34.499Z,30.02
2018-06-15T12:30:03.714Z,29.01
2018-06-15T12:32:32.484Z,28.58
2018-06-15T12:35:01.539Z,28.45
2018-06-15T12:37:31.257Z,28.26
2018-06-15T12:40:00.284Z,28.08
2018-06-15T12:42:29.253Z,27.82
2018-06-15T12:44:58.864Z,27.94
2018-06-15T12:47:28.607Z,28.53
2018-06-15T12:49:57.707Z,28.37
2018-06-15T12:52:26.372Z,28.32
2018-06-15T12:54:54.819Z,28.11
2018-06-15T12:57:23.415Z,27.90
2018-06-15T12:59:51.989Z,28.08
2018-06-15T13:02:20.945Z,27.94
2018-06-15T13:04:49.692Z,27.36
2018-06-15T13:07:18.096Z,27.17
2018-06-15T13:09:46.682Z,27.00
2018-06-15T13:12:15.349Z,27.30
2018-06-15T13:14:43.804Z,27.79
2018-06-15T13:17:12.392Z,28.08
2018-06-15T13:19:41.228Z,29.09
2018-06-15T13:22:10.133Z,30.51
2018-06-15T13:24:39.199Z,30.45
2018-06-15T13:27:08.051Z,29.18
2018-06-15T13:29:36.791Z,29.18
2018-06-15T13:32:05.464Z,29.89
2018-06-15T13:34:34.096Z,30.31
2018-06-15T13:37:02.674Z,30.60
2018-06-15T13:39:31.580Z,30.41
2018-06-15T13:42:00.674Z,29.48
2018-06-15T13:44:29.591Z,28.88
2018-06-15T13:46:58.254Z,29.38
2018-06-15T13:49:27.184Z,29.44
2018-06-15T13:51:56.131Z,28.84
2018-06-15T13:54:25.196Z,28.88
2018-06-15T13:56:54.123Z,29.46
2018-06-15T13:59:22.906Z,29.03
2018-06-15T14:01:51.539Z,29.49
2018-06-15T14:04:20.219Z,30.36
2018-06-15T14:06:48.858Z,30.96
2018-06-15T14:09:17.544Z,31.08
2018-06-15T14:11:46.182Z,30.92
2018-06-15T14:14:14.871Z,30.35
2018-06-15T14:16:43.463Z,30.92
2018-06-15T14:19:12.809Z,31.17
2018-06-15T14:21:41.739Z,31.05
2018-06-15T14:24:10.798Z,30.42
2018-06-15T14:26:39.604Z,30.66
2018-06-15T14:29:08.487Z,30.09
2018-06-15T14:31:37.203Z,30.63
2018-06-15T14:34:05.842Z,31.18
2018-06-15T14:36:34.536Z,30.21
2018-06-15T14:39:04.786Z,28.83
2018-06-15T14:41:33.780Z,27.93
2018-06-15T14:44:02.481Z,27.62
2018-06-15T14:46:31.217Z,28.44
2018-06-15T14:48:59.941Z,29.01
2018-06-15T14:51:28.758Z,29.96
2018-06-15T14:53:57.430Z,29.88
2018-06-15T14:56:26.264Z,29.11
2018-06-15T14:58:54.919Z,29.43
2018-06-15T15:01:23.587Z,28.50
2018-06-15T15:03:52.286Z,27.82
2018-06-15T15:06:20.749Z,27.54
2018-06-15T15:08:50.005Z,27.68
2018-06-15T15:11:18.894Z,27.33
2018-06-15T15:13:47.524Z,27.98
2018-06-15T15:16:16.639Z,29.22
2018-06-15T15:18:45.503Z,29.78
2018-06-15T15:21:14.359Z,30.33
2018-06-15T15:23:43.221Z,29.79
2018-06-15T15:26:12.138Z,29.72
2018-06-15T15:28:41.133Z,29.40
2018-06-15T15:31:10.116Z,29.45
2018-06-15T15:33:39.031Z,29.30
2018-06-15T15:36:07.951Z,29.47
2018-06-15T15:38:36.964Z,29.04
2018-06-15T15:41:05.716Z,29.14
2018-06-15T15:43:34.541Z,29.07
2018-06-15T15:46:03.309Z,29.10
2018-06-15T15:48:32.045Z,29.24
2018-06-15T15:51:00.859Z,29.35
2018-06-15T15:53:29.811Z,28.29
2018-06-15T15:55:58.787Z,27.15
2018-06-15T15:58:27.719Z,26.69
2018-06-15T16:00:56.554Z,26.41
2018-06-15T16:03:25.323Z,26.36
2018-06-15T16:05:54.026Z,27.39
2018-06-15T16:08:22.869Z,28.13
2018-06-15T16:10:51.596Z,28.73
2018-06-15T16:13:20.978Z,28.95
2018-06-15T16:15:49.736Z,28.54
2018-06-15T16:18:18.216Z,28.15
2018-06-15T16:20:46.944Z,28.66
2018-06-15T16:23:15.559Z,28.66
2018-06-15T16:25:44.326Z,28.58
2018-06-15T16:28:12.971Z,28.59
2018-06-15T16:30:41.831Z,28.20
2018-06-15T16:33:10.936Z,28.19
2018-06-15T16:35:39.837Z,28.43
2018-06-15T16:38:10.121Z,28.76
2018-06-15T16:40:39.074Z,28.92
2018-06-15T16:43:08.019Z,28.74
2018-06-15T16:45:37.036Z,28.29
2018-06-15T16:48:05.738Z,28.10
2018-06-15T16:50:34.676Z,27.79
2018-06-15T16:53:03.684Z,27.55
2018-06-15T16:55:32.609Z,27.93
2018-06-15T16:58:01.614Z,27.87
2018-06-15T17:00:30.618Z,27.45
2018-06-15T17:02:59.550Z,27.47
2018-06-15T17:05:28.500Z,27.21
2018-06-15T17:07:58.036Z,26.83
2018-06-15T17:10:27.021Z,26.80
2018-06-15T17:12:56.193Z,25.98
2018-06-15T17:15:25.174Z,25.30
2018-06-15T17:17:54.187Z,25.02
2018-06-15T17:20:23.130Z,24.81
2018-06-15T17:22:51.959Z,24.69
2018-06-15T17:25:20.615Z,24.49
2018-06-15T17:27:49.319Z,24.35
2018-06-15T17:30:18.096Z,24.20
2018-06-15T17:32:46.991Z,24.12
2018-06-15T17:35:15.881Z,24.11
2018-06-15T17:37:44.858Z,24.04
2018-06-15T17:40:13.896Z,24.01
2018-06-15T17:42:42.831Z,23.96
2018-06-15T17:45:12.753Z,23.88
2018-06-15T17:47:41.673Z,23.79
2018-06-15T17:50:10.590Z,23.77
2018-06-15T17:52:39.497Z,23.67
2018-06-15T17:55:08.439Z,23.62
2018-06-15T17:57:37.322Z,23.55
2018-06-15T18:00:06.491Z,23.45
2018-06-15T18:02:35.584Z,23.48
2018-06-15T18:05:04.376Z,23.37
2018-06-15T18:07:32.991Z,23.28
2018-06-15T18:10:02.793Z,23.28
2018-06-15T18:12:31.450Z,23.29
2018-06-15T18:15:00.103Z,23.26
2018-06-15T18:17:28.847Z,23.14
2018-06-15T18:19:57.611Z,23.01
2018-06-15T18:22:26.751Z,22.97
2018-06-15T18:24:55.851Z,22.90
2018-06-15T18:27:24.829Z,22.78
2018-06-15T18:29:53.692Z,22.73
2018-06-15T18:32:22.306Z,22.68
2018-06-15T18:34:51.048Z,22.59
2018-06-15T18:37:19.771Z,22.52
2018-06-15T18:39:48.648Z,22.49
2018-06-15T18:42:17.731Z,22.40
2018-06-15T18:44:46.696Z,22.28
2018-06-15T18:47:15.599Z,22.23
2018-06-15T18:49:44.201Z,22.22
2018-06-15T18:52:13.059Z,22.11
2018-06-15T18:54:42.106Z,22.04
2018-06-15T18:57:11.006Z,21.97
2018-06-15T18:59:39.697Z,21.94
2018-06-15T19:02:08.804Z,21.88
2018-06-15T19:04:37.432Z,21.76
2018-06-15T19:07:06.351Z,21.65
2018-06-15T19:09:34.952Z,21.68
2018-06-15T19:12:03.544Z,21.73
2018-06-15T19:14:32.154Z,21.71
2018-06-15T19:17:00.759Z,21.79
2018-06-15T19:19:37.847Z,21.74
2018-06-15T19:22:06.324Z,21.59
2018-06-15T19:24:34.898Z,21.58
2018-06-15T19:27:03.472Z,21.53
2018-06-15T19:29:32.096Z,21.53
2018-06-15T19:32:00.703Z,21.48
2018-06-15T19:34:29.325Z,21.36
2018-06-15T19:36:57.916Z,21.39
2018-06-15T19:39:26.509Z,21.33
2018-06-15T19:41:55.089Z,21.34
2018-06-15T19:44:23.659Z,21.23
2018-06-15T19:46:52.261Z,21.22
2018-06-15T19:49:20.835Z,21.20
2018-06-15T19:51:49.780Z,21.13
2018-06-15T19:54:18.608Z,21.10
2018-06-15T19:56:47.501Z,21.04
2018-06-15T19:59:16.041Z,20.98
2018-06-15T20:01:44.693Z,21.05
2018-06-15T20:04:13.379Z,20.98
2018-06-15T20:06:42.046Z,20.88
2018-06-15T20:09:10.776Z,20.81
2018-06-15T20:11:39.716Z,20.73
2018-06-15T20:14:08.384Z,20.71
2018-06-15T20:16:37.203Z,20.71
2018-06-15T20:19:05.946Z,20.56
2018-06-15T20:21:35.069Z,20.41
2018-06-15T20:24:04.232Z,20.39
2018-06-15T20:26:34.028Z,20.30
2018-06-15T20:29:03.148Z,20.15
2018-06-15T20:31:32.883Z,20.03
2018-06-15T20:34:01.823Z,19.89
2018-06-15T20:36:31.366Z,19.73
2018-06-15T20:39:00.318Z,19.64
2018-06-15T20:41:28.951Z,19.51
2018-06-15T20:43:57.591Z,19.54
2018-06-15T20:46:26.274Z,19.35
2018-06-15T20:48:54.999Z,19.18
2018-06-15T20:51:23.935Z,19.05
2018-06-15T20:53:52.583Z,19.04
2018-06-15T20:56:21.196Z,19.30
2018-06-15T20:58:50.363Z,19.30
2018-06-15T21:01:19.086Z,19.22
2018-06-15T21:03:47.805Z,19.18
2018-06-15T21:06:17.264Z,19.18
2018-06-15T21:08:47.344Z,19.08
2018-06-15T21:11:16.313Z,19.20
2018-06-15T21:13:45.208Z,19.15
2018-06-15T21:16:14.351Z,19.30
2018-06-15T21:18:43.118Z,19.31
2018-06-15T21:21:11.758Z,19.30
2018-06-15T21:23:41.121Z,19.15
2018-06-15T21:26:09.799Z,19.04
2018-06-15T21:28:38.664Z,19.10
2018-06-15T21:31:07.639Z,19.32
2018-06-15T21:33:36.836Z,19.22
2018-06-15T21:36:05.936Z,19.18
2018-06-15T21:38:34.553Z,19.19
2018-06-15T21:41:03.226Z,19.35
2018-06-15T21:43:31.901Z,19.22
2018-06-15T21:46:09.858Z,19.03
2018-06-15T21:48:42.466Z,18.97
2018-06-15T21:51:13.388Z,18.86
2018-06-15T21:53:42.330Z,19.09
2018-06-15T21:56:11.043Z,18.92
2018-06-15T21:58:39.763Z,18.93
2018-06-15T22:01:08.451Z,18.94
2018-06-15T22:03:37.185Z,18.76
2018-06-15T22:06:05.826Z,18.63
2018-06-15T22:08:34.516Z,18.62
2018-06-15T22:11:03.153Z,18.49
2018-06-15T22:13:31.744Z,18.44
2018-06-15T22:16:01.076Z,18.36
2018-06-15T22:18:30.382Z,18.51
2018-06-15T22:20:59.146Z,18.78
2018-06-15T22:23:27.815Z,18.86
2018-06-15T22:25:56.473Z,18.79
2018-06-15T22:28:25.287Z,18.65
2018-06-15T22:30:54.224Z,18.47
2018-06-15T22:33:23.266Z,18.38
2018-06-15T22:35:52.312Z,18.23
2018-06-15T22:38:21.577Z,18.12
2018-06-15T22:40:50.508Z,18.10
2018-06-15T22:43:19.873Z,18.04
2018-06-15T22:45:48.556Z,18.06
2018-06-15T22:48:17.405Z,18.04
2018-06-15T22:50:46.466Z,18.03
2018-06-15T22:53:15.348Z,17.92
2018-06-15T22:55:44.257Z,17.83
2018-06-15T22:58:12.911Z,17.84
2018-06-15T23:00:41.518Z,17.80
2018-06-15T23:03:10.240Z,17.79
2018-06-15T23:05:39.351Z,17.76
2018-06-15T23:08:08.223Z,18.03
2018-06-15T23:10:36.898Z,18.04
2018-06-15T23:13:05.798Z,18.27
2018-06-15T23:15:34.705Z,18.33
2018-06-15T23:18:03.576Z,18.26
2018-06-15T23:20:32.175Z,18.35
2018-06-15T23:23:01.056Z,18.45
2018-06-15T23:25:29.948Z,18.68
2018-06-15T23:27:58.643Z,18.62
2018-06-15T23:30:27.246Z,18.47
2018-06-15T23:32:55.871Z,18.41
2018-06-15T23:35:24.491Z,18.34
2018-06-15T23:37:53.058Z,18.26
2018-06-15T23:40:21.649Z,18.12
2018-06-15T23:42:50.585Z,18.31
2018-06-15T23:45:22.918Z,18.34
2018-06-15T23:47:53.185Z,18.26
2018-06-15T23:50:33.026Z,18.27
2018-06-15T23:53:01.993Z,18.20
2018-06-15T23:55:30.858Z,18.07
2018-06-15T23:58:01.559Z,17.97
